sensor_id;sensor_type;location;lat;lon;timestamp;pressure;altitude;pressure_sealevel;temperature;humidity
1926;BME280;964;42.606;23.588;2023-02-18T00:01:49;95260.00;;;23.65;21.47
1926;BME280;964;42.606;23.588;2023-02-18T00:04:16;95262.09;;;23.57;21.41
1926;BME280;964;42.606;23.588;2023-02-18T00:06:44;95250.94;;;23.94;21.04
1926;BME280;964;42.606;23.588;2023-02-18T00:09:11;95259.28;;;23.18;21.90
1926;BME280;964;42.606;23.588;2023-02-18T00:11:38;95257.09;;;23.32;22.16
1926;BME280;964;42.606;23.588;2023-02-18T00:14:09;95253.41;;;23.00;22.21
1926;BME280;964;42.606;23.588;2023-02-18T00:16:36;95251.78;;;22.52;22.80
1926;BME280;964;42.606;23.588;2023-02-18T00:19:05;95246.72;;;22.58;22.28
1926;BME280;964;42.606;23.588;2023-02-18T00:21:34;95243.41;;;22.96;22.51
1926;BME280;964;42.606;23.588;2023-02-18T00:24:03;95235.56;;;21.98;23.08
1926;BME280;964;42.606;23.588;2023-02-18T00:26:30;95238.31;;;22.25;22.74
1926;BME280;964;42.606;23.588;2023-02-18T00:28:57;95222.78;;;22.56;22.75
1926;BME280;964;42.606;23.588;2023-02-18T00:31:26;95220.72;;;22.14;23.16
1926;BME280;964;42.606;23.588;2023-02-18T00:33:54;95217.63;;;21.81;23.36
1926;BME280;964;42.606;23.588;2023-02-18T00:36:23;95213.88;;;21.72;23.51
1926;BME280;964;42.606;23.588;2023-02-18T00:38:51;95211.38;;;22.45;22.66
1926;BME280;964;42.606;23.588;2023-02-18T00:41:21;95201.19;;;22.83;21.88
1926;BME280;964;42.606;23.588;2023-02-18T00:43:48;95198.75;;;22.88;21.99
1926;BME280;964;42.606;23.588;2023-02-18T00:46:15;95197.59;;;22.89;22.25
1926;BME280;964;42.606;23.588;2023-02-18T00:48:42;95194.44;;;21.87;23.29
1926;BME280;964;42.606;23.588;2023-02-18T00:51:10;95192.53;;;22.91;22.24
1926;BME280;964;42.606;23.588;2023-02-18T00:53:37;95201.72;;;22.98;21.97
1926;BME280;964;42.606;23.588;2023-02-18T00:56:04;95194.38;;;23.80;21.28
1926;BME280;964;42.606;23.588;2023-02-18T00:58:33;95187.28;;;23.86;20.98
1926;BME280;964;42.606;23.588;2023-02-18T01:01:00;95195.75;;;24.44;20.37
1926;BME280;964;42.606;23.588;2023-02-18T01:03:27;95191.47;;;24.27;21.15
1926;BME280;964;42.606;23.588;2023-02-18T01:05:53;95193.16;;;24.21;20.90
1926;BME280;964;42.606;23.588;2023-02-18T01:08:20;95195.06;;;24.40;20.79
1926;BME280;964;42.606;23.588;2023-02-18T01:10:51;95197.56;;;23.75;21.54
1926;BME280;964;42.606;23.588;2023-02-18T01:13:18;95192.56;;;23.74;21.18
1926;BME280;964;42.606;23.588;2023-02-18T01:15:46;95203.34;;;23.77;20.88
1926;BME280;964;42.606;23.588;2023-02-18T01:18:13;95199.63;;;23.87;21.17
1926;BME280;964;42.606;23.588;2023-02-18T01:20:41;95201.53;;;23.51;21.05
1926;BME280;964;42.606;23.588;2023-02-18T01:23:09;95203.63;;;23.40;21.20
1926;BME280;964;42.606;23.588;2023-02-18T01:25:37;95208.72;;;23.38;21.28
1926;BME280;964;42.606;23.588;2023-02-18T01:28:05;95197.47;;;22.73;22.71
1926;BME280;964;42.606;23.588;2023-02-18T01:30:32;95206.72;;;21.58;23.73
1926;BME280;964;42.606;23.588;2023-02-18T01:33:01;95195.50;;;22.24;22.54
1926;BME280;964;42.606;23.588;2023-02-18T01:35:28;95192.69;;;22.58;22.29
1926;BME280;964;42.606;23.588;2023-02-18T01:37:55;95193.41;;;21.78;22.76
1926;BME280;964;42.606;23.588;2023-02-18T01:40:24;95192.91;;;21.56;23.73
1926;BME280;964;42.606;23.588;2023-02-18T01:42:51;95183.06;;;23.03;22.12
1926;BME280;964;42.606;23.588;2023-02-18T01:45:47;95176.22;;;23.41;21.39
1926;BME280;964;42.606;23.588;2023-02-18T01:48:20;95191.47;;;22.85;22.21
1926;BME280;964;42.606;23.588;2023-02-18T01:50:52;95182.41;;;23.98;21.21
1926;BME280;964;42.606;23.588;2023-02-18T01:53:25;95179.28;;;23.99;21.09
1926;BME280;964;42.606;23.588;2023-02-18T01:55:53;95183.78;;;24.06;20.42
1926;BME280;964;42.606;23.588;2023-02-18T01:58:22;95182.72;;;24.19;20.85
1926;BME280;964;42.606;23.588;2023-02-18T02:00:49;95181.25;;;24.99;19.88
1926;BME280;964;42.606;23.588;2023-02-18T02:03:17;95195.22;;;24.65;20.31
1926;BME280;964;42.606;23.588;2023-02-18T02:05:43;95186.16;;;24.72;20.36
1926;BME280;964;42.606;23.588;2023-02-18T02:08:10;95195.06;;;24.72;19.83
1926;BME280;964;42.606;23.588;2023-02-18T02:10:55;95189.47;;;24.79;20.04
1926;BME280;964;42.606;23.588;2023-02-18T02:13:31;95181.13;;;25.76;19.12
1926;BME280;964;42.606;23.588;2023-02-18T02:16:05;95173.84;;;25.16;19.59
1926;BME280;964;42.606;23.588;2023-02-18T02:18:49;95182.78;;;24.52;19.86
1926;BME280;964;42.606;23.588;2023-02-18T02:21:52;95178.28;;;24.77;19.88
1926;BME280;964;42.606;23.588;2023-02-18T02:24:47;95170.97;;;25.07;19.76
1926;BME280;964;42.606;23.588;2023-02-18T02:27:23;95184.03;;;24.96;19.79
1926;BME280;964;42.606;23.588;2023-02-18T02:30:10;95189.22;;;24.58;20.50
1926;BME280;964;42.606;23.588;2023-02-18T02:35:51;95188.63;;;24.99;19.97
1926;BME280;964;42.606;23.588;2023-02-18T02:38:24;95186.94;;;24.72;20.39
1926;BME280;964;42.606;23.588;2023-02-18T02:41:00;95188.75;;;23.52;21.59
1926;BME280;964;42.606;23.588;2023-02-18T02:43:33;95193.41;;;23.08;21.96
1926;BME280;964;42.606;23.588;2023-02-18T02:46:09;95180.22;;;24.45;20.67
1926;BME280;964;42.606;23.588;2023-02-18T02:48:42;95184.41;;;24.65;20.35
1926;BME280;964;42.606;23.588;2023-02-18T02:51:17;95189.03;;;24.32;20.44
1926;BME280;964;42.606;23.588;2023-02-18T02:53:45;95178.13;;;24.36;20.33
1926;BME280;964;42.606;23.588;2023-02-18T02:56:16;95171.84;;;23.67;21.20
1926;BME280;964;42.606;23.588;2023-02-18T02:58:45;95170.09;;;24.13;20.46
1926;BME280;964;42.606;23.588;2023-02-18T03:01:20;95172.03;;;24.80;19.86
1926;BME280;964;42.606;23.588;2023-02-18T03:06:55;95171.88;;;24.87;19.81
1926;BME280;964;42.606;23.588;2023-02-18T03:09:33;95172.72;;;25.58;19.45
1926;BME280;964;42.606;23.588;2023-02-18T03:12:10;95181.09;;;25.35;19.54
1926;BME280;964;42.606;23.588;2023-02-18T03:14:44;95185.78;;;25.63;19.40
1926;BME280;964;42.606;23.588;2023-02-18T03:17:19;95194.38;;;24.52;19.86
1926;BME280;964;42.606;23.588;2023-02-18T03:19:52;95193.72;;;24.97;19.88
1926;BME280;964;42.606;23.588;2023-02-18T03:22:24;95197.03;;;24.20;20.47
1926;BME280;964;42.606;23.588;2023-02-18T03:24:55;95205.19;;;24.36;20.79
1926;BME280;964;42.606;23.588;2023-02-18T03:27:27;95205.53;;;24.22;20.50
1926;BME280;964;42.606;23.588;2023-02-18T03:29:56;95201.34;;;24.17;20.30
1926;BME280;964;42.606;23.588;2023-02-18T03:32:26;95210.31;;;24.14;20.70
1926;BME280;964;42.606;23.588;2023-02-18T03:34:57;95223.88;;;23.32;21.46
1926;BME280;964;42.606;23.588;2023-02-18T03:37:27;95219.66;;;24.10;20.67
1926;BME280;964;42.606;23.588;2023-02-18T03:39:58;95222.69;;;23.76;20.83
1926;BME280;964;42.606;23.588;2023-02-18T03:42:27;95228.50;;;23.55;20.89
1926;BME280;964;42.606;23.588;2023-02-18T03:44:54;95221.94;;;24.15;20.91
1926;BME280;964;42.606;23.588;2023-02-18T03:47:22;95225.97;;;23.67;20.98
1926;BME280;964;42.606;23.588;2023-02-18T03:49:49;95228.47;;;23.35;21.14
1926;BME280;964;42.606;23.588;2023-02-18T03:52:15;95230.72;;;23.17;21.50
1926;BME280;964;42.606;23.588;2023-02-18T03:54:43;95231.19;;;23.35;21.47
1926;BME280;964;42.606;23.588;2023-02-18T03:57:10;95221.97;;;24.63;19.91
1926;BME280;964;42.606;23.588;2023-02-18T03:59:37;95235.28;;;24.74;20.04
1926;BME280;964;42.606;23.588;2023-02-18T04:02:03;95228.59;;;24.62;19.93
1926;BME280;964;42.606;23.588;2023-02-18T04:04:30;95223.03;;;25.02;19.68
1926;BME280;964;42.606;23.588;2023-02-18T04:06:57;95242.84;;;24.82;19.77
1926;BME280;964;42.606;23.588;2023-02-18T04:09:24;95235.66;;;24.24;20.31
1926;BME280;964;42.606;23.588;2023-02-18T04:11:52;95222.78;;;24.96;19.87
1926;BME280;964;42.606;23.588;2023-02-18T04:14:19;95223.34;;;25.20;19.68
1926;BME280;964;42.606;23.588;2023-02-18T04:16:45;95226.66;;;25.11;19.68
1926;BME280;964;42.606;23.588;2023-02-18T04:19:12;95224.25;;;24.84;19.92
1926;BME280;964;42.606;23.588;2023-02-18T04:21:39;95231.16;;;24.17;20.42
1926;BME280;964;42.606;23.588;2023-02-18T04:24:05;95223.00;;;24.53;20.21
1926;BME280;964;42.606;23.588;2023-02-18T04:26:32;95215.50;;;24.25;20.45
1926;BME280;964;42.606;23.588;2023-02-18T04:29:01;95222.19;;;24.20;20.58
1926;BME280;964;42.606;23.588;2023-02-18T04:31:27;95229.13;;;23.19;21.37
1926;BME280;964;42.606;23.588;2023-02-18T04:33:54;95223.31;;;23.44;21.28
1926;BME280;964;42.606;23.588;2023-02-18T04:36:21;95218.63;;;23.68;21.13
1926;BME280;964;42.606;23.588;2023-02-18T04:38:48;95223.50;;;22.60;22.08
1926;BME280;964;42.606;23.588;2023-02-18T04:41:14;95223.03;;;23.58;21.42
1926;BME280;964;42.606;23.588;2023-02-18T04:43:41;95219.41;;;24.24;20.08
1926;BME280;964;42.606;23.588;2023-02-18T04:46:09;95206.56;;;24.44;20.46
1926;BME280;964;42.606;23.588;2023-02-18T04:48:36;95198.34;;;24.64;20.11
1926;BME280;964;42.606;23.588;2023-02-18T04:51:03;95210.53;;;24.56;20.20
1926;BME280;964;42.606;23.588;2023-02-18T04:53:30;95215.50;;;24.93;19.68
1926;BME280;964;42.606;23.588;2023-02-18T04:55:57;95214.53;;;25.00;19.78
1926;BME280;964;42.606;23.588;2023-02-18T04:58:24;95221.06;;;25.18;19.72
1926;BME280;964;42.606;23.588;2023-02-18T05:00:51;95218.69;;;25.20;19.75
1926;BME280;964;42.606;23.588;2023-02-18T05:03:19;95216.72;;;24.40;20.26
1926;BME280;964;42.606;23.588;2023-02-18T05:05:46;95222.00;;;23.29;21.68
1926;BME280;964;42.606;23.588;2023-02-18T05:08:12;95214.56;;;24.15;20.73
1926;BME280;964;42.606;23.588;2023-02-18T05:10:40;95216.88;;;24.33;20.54
1926;BME280;964;42.606;23.588;2023-02-18T05:13:07;95223.53;;;23.73;20.85
1926;BME280;964;42.606;23.588;2023-02-18T05:15:34;95213.47;;;25.42;19.42
1926;BME280;964;42.606;23.588;2023-02-18T05:18:00;95206.72;;;25.63;19.38
1926;BME280;964;42.606;23.588;2023-02-18T05:20:30;95209.13;;;25.00;19.48
1926;BME280;964;42.606;23.588;2023-02-18T05:22:57;95210.47;;;24.43;20.25
1926;BME280;964;42.606;23.588;2023-02-18T05:25:24;95205.56;;;25.76;19.30
1926;BME280;964;42.606;23.588;2023-02-18T05:27:51;95219.19;;;25.31;19.26
1926;BME280;964;42.606;23.588;2023-02-18T05:33:15;95223.72;;;26.21;19.07
1926;BME280;964;42.606;23.588;2023-02-18T05:35:43;95220.03;;;26.65;18.74
1926;BME280;964;42.606;23.588;2023-02-18T05:38:10;95213.06;;;26.64;18.75
1926;BME280;964;42.606;23.588;2023-02-18T05:40:37;95223.00;;;25.92;19.25
1926;BME280;964;42.606;23.588;2023-02-18T05:43:04;95213.50;;;25.71;19.08
1926;BME280;964;42.606;23.588;2023-02-18T05:45:30;95218.09;;;25.58;19.71
1926;BME280;964;42.606;23.588;2023-02-18T05:47:57;95212.47;;;25.65;19.59
1926;BME280;964;42.606;23.588;2023-02-18T05:50:24;95223.88;;;24.66;20.60
1926;BME280;964;42.606;23.588;2023-02-18T05:52:52;95219.66;;;24.10;20.71
1926;BME280;964;42.606;23.588;2023-02-18T05:55:19;95240.72;;;23.20;21.75
1926;BME280;964;42.606;23.588;2023-02-18T05:57:45;95244.22;;;23.40;22.17
1926;BME280;964;42.606;23.588;2023-02-18T06:00:13;95248.16;;;23.78;21.37
1926;BME280;964;42.606;23.588;2023-02-18T06:02:40;95242.47;;;23.73;21.84
1926;BME280;964;42.606;23.588;2023-02-18T06:05:07;95248.97;;;24.86;20.66
1926;BME280;964;42.606;23.588;2023-02-18T06:07:34;95237.41;;;24.66;20.88
1926;BME280;964;42.606;23.588;2023-02-18T06:10:02;95233.69;;;24.76;20.95
1926;BME280;964;42.606;23.588;2023-02-18T06:12:29;95235.50;;;25.60;20.25
1926;BME280;964;42.606;23.588;2023-02-18T06:14:56;95247.44;;;25.47;20.31
1926;BME280;964;42.606;23.588;2023-02-18T06:17:22;95244.78;;;24.82;21.23
1926;BME280;964;42.606;23.588;2023-02-18T06:19:49;95240.59;;;26.00;20.08
1926;BME280;964;42.606;23.588;2023-02-18T06:22:16;95229.50;;;25.53;20.45
1926;BME280;964;42.606;23.588;2023-02-18T06:24:43;95233.78;;;24.73;20.31
1926;BME280;964;42.606;23.588;2023-02-18T06:27:11;95222.75;;;24.80;20.45
1926;BME280;964;42.606;23.588;2023-02-18T06:29:37;95209.59;;;26.51;19.29
1926;BME280;964;42.606;23.588;2023-02-18T06:32:04;95202.25;;;27.11;18.43
1926;BME280;964;42.606;23.588;2023-02-18T06:34:31;95217.34;;;27.59;18.21
1926;BME280;964;42.606;23.588;2023-02-18T06:36:58;95204.75;;;27.74;18.13
1926;BME280;964;42.606;23.588;2023-02-18T06:39:24;95200.06;;;27.97;17.68
1926;BME280;964;42.606;23.588;2023-02-18T06:41:51;95203.09;;;29.18;17.24
1926;BME280;964;42.606;23.588;2023-02-18T06:44:19;95208.81;;;30.21;16.71
1926;BME280;964;42.606;23.588;2023-02-18T06:46:46;95201.00;;;31.89;16.23
1926;BME280;964;42.606;23.588;2023-02-18T06:49:12;95184.50;;;33.72;15.06
1926;BME280;964;42.606;23.588;2023-02-18T06:51:39;95181.75;;;33.98;14.50
1926;BME280;964;42.606;23.588;2023-02-18T06:54:06;95190.34;;;33.19;14.81
1926;BME280;964;42.606;23.588;2023-02-18T06:56:33;95194.88;;;31.94;15.70
1926;BME280;964;42.606;23.588;2023-02-18T06:58:59;95209.50;;;29.88;16.20
1926;BME280;964;42.606;23.588;2023-02-18T07:01:27;95209.66;;;29.48;16.23
1926;BME280;964;42.606;23.588;2023-02-18T07:03:54;95205.41;;;29.65;16.28
1926;BME280;964;42.606;23.588;2023-02-18T07:06:21;95212.59;;;28.16;17.16
1926;BME280;964;42.606;23.588;2023-02-18T07:08:47;95207.31;;;28.92;16.89
1926;BME280;964;42.606;23.588;2023-02-18T07:11:14;95213.00;;;29.61;16.66
1926;BME280;964;42.606;23.588;2023-02-18T07:13:41;95220.22;;;29.19;16.89
1926;BME280;964;42.606;23.588;2023-02-18T07:16:08;95218.94;;;29.69;16.63
1926;BME280;964;42.606;23.588;2023-02-18T07:18:36;95214.78;;;30.10;16.54
1926;BME280;964;42.606;23.588;2023-02-18T07:21:03;95215.09;;;29.21;17.04
1926;BME280;964;42.606;23.588;2023-02-18T07:23:30;95204.31;;;29.81;16.81
1926;BME280;964;42.606;23.588;2023-02-18T07:26:07;95207.47;;;28.89;17.16
1926;BME280;964;42.606;23.588;2023-02-18T07:28:34;95208.75;;;29.33;16.62
1926;BME280;964;42.606;23.588;2023-02-18T07:31:01;95207.41;;;29.29;16.99
1926;BME280;964;42.606;23.588;2023-02-18T07:33:27;95192.53;;;28.71;17.34
1926;BME280;964;42.606;23.588;2023-02-18T07:35:57;95186.84;;;30.06;16.82
1926;BME280;964;42.606;23.588;2023-02-18T07:38:26;95193.31;;;30.69;16.38
1926;BME280;964;42.606;23.588;2023-02-18T07:40:53;95184.25;;;31.57;15.74
1926;BME280;964;42.606;23.588;2023-02-18T07:43:20;95189.00;;;31.72;15.64
1926;BME280;964;42.606;23.588;2023-02-18T07:45:47;95191.81;;;31.77;15.76
1926;BME280;964;42.606;23.588;2023-02-18T07:48:14;95196.41;;;32.24;14.82
1926;BME280;964;42.606;23.588;2023-02-18T07:50:43;95186.13;;;32.69;14.61
1926;BME280;964;42.606;23.588;2023-02-18T07:53:14;95200.00;;;32.01;15.50
1926;BME280;964;42.606;23.588;2023-02-18T07:55:41;95194.34;;;33.18;14.64
1926;BME280;964;42.606;23.588;2023-02-18T07:58:18;95187.72;;;34.22;14.29
1926;BME280;964;42.606;23.588;2023-02-18T08:00:46;95204.47;;;34.50;13.82
1926;BME280;964;42.606;23.588;2023-02-18T08:03:14;95202.53;;;33.79;14.18
1926;BME280;964;42.606;23.588;2023-02-18T08:05:41;95202.28;;;33.16;14.23
1926;BME280;964;42.606;23.588;2023-02-18T08:08:13;95195.91;;;32.90;14.71
1926;BME280;964;42.606;23.588;2023-02-18T08:10:41;95200.84;;;33.61;14.07
1926;BME280;964;42.606;23.588;2023-02-18T08:13:09;95197.38;;;34.38;13.93
1926;BME280;964;42.606;23.588;2023-02-18T08:15:36;95181.47;;;34.22;13.92
1926;BME280;964;42.606;23.588;2023-02-18T08:18:03;95168.69;;;37.41;12.72
1926;BME280;964;42.606;23.588;2023-02-18T08:20:30;95157.16;;;38.78;12.00
1926;BME280;964;42.606;23.588;2023-02-18T08:22:57;95180.63;;;37.08;12.33
1926;BME280;964;42.606;23.588;2023-02-18T08:25:25;95177.59;;;37.00;12.62
1926;BME280;964;42.606;23.588;2023-02-18T08:27:52;95168.59;;;36.83;12.30
1926;BME280;964;42.606;23.588;2023-02-18T08:30:18;95180.41;;;36.45;12.78
1926;BME280;964;42.606;23.588;2023-02-18T08:32:45;95161.47;;;37.21;12.10
1926;BME280;964;42.606;23.588;2023-02-18T08:35:12;95168.66;;;37.52;12.50
1926;BME280;964;42.606;23.588;2023-02-18T08:37:39;95163.78;;;38.69;11.98
1926;BME280;964;42.606;23.588;2023-02-18T08:40:06;95175.34;;;38.14;12.00
1926;BME280;964;42.606;23.588;2023-02-18T08:42:34;95176.38;;;36.90;13.11
1926;BME280;964;42.606;23.588;2023-02-18T08:45:01;95154.00;;;38.39;11.69
1926;BME280;964;42.606;23.588;2023-02-18T08:47:28;95144.91;;;40.42;10.95
1926;BME280;964;42.606;23.588;2023-02-18T08:49:55;95146.16;;;38.07;11.92
1926;BME280;964;42.606;23.588;2023-02-18T08:52:22;95150.50;;;38.33;12.07
1926;BME280;964;42.606;23.588;2023-02-18T08:54:49;95164.03;;;35.74;13.49
1926;BME280;964;42.606;23.588;2023-02-18T08:57:16;95165.94;;;34.50;13.88
1926;BME280;964;42.606;23.588;2023-02-18T08:59:44;95174.66;;;33.45;14.88
1926;BME280;964;42.606;23.588;2023-02-18T09:02:12;95181.09;;;33.02;15.03
1926;BME280;964;42.606;23.588;2023-02-18T09:04:39;95195.28;;;32.16;15.23
1926;BME280;964;42.606;23.588;2023-02-18T09:07:06;95195.81;;;31.62;15.78
1926;BME280;964;42.606;23.588;2023-02-18T09:09:33;95202.34;;;31.79;16.12
1926;BME280;964;42.606;23.588;2023-02-18T09:11:59;95221.00;;;30.10;16.85
1926;BME280;964;42.606;23.588;2023-02-18T09:14:26;95214.97;;;30.57;16.71
1926;BME280;964;42.606;23.588;2023-02-18T09:16:55;95216.91;;;30.99;16.55
1926;BME280;964;42.606;23.588;2023-02-18T09:19:22;95198.28;;;31.50;16.22
1926;BME280;964;42.606;23.588;2023-02-18T09:21:49;95191.66;;;32.39;15.87
1926;BME280;964;42.606;23.588;2023-02-18T09:24:17;95177.97;;;33.49;15.04
1926;BME280;964;42.606;23.588;2023-02-18T09:26:44;95168.63;;;36.22;13.42
1926;BME280;964;42.606;23.588;2023-02-18T09:29:10;95157.53;;;37.63;12.77
1926;BME280;964;42.606;23.588;2023-02-18T09:31:37;95158.09;;;37.45;12.66
1926;BME280;964;42.606;23.588;2023-02-18T09:34:06;95155.16;;;35.42;13.37
1926;BME280;964;42.606;23.588;2023-02-18T09:36:32;95152.16;;;35.40;13.91
1926;BME280;964;42.606;23.588;2023-02-18T09:38:59;95150.75;;;35.73;13.45
1926;BME280;964;42.606;23.588;2023-02-18T09:41:33;95166.41;;;35.33;13.75
1926;BME280;964;42.606;23.588;2023-02-18T09:44:05;95155.56;;;34.71;14.10
1926;BME280;964;42.606;23.588;2023-02-18T09:46:42;95154.78;;;34.02;13.95
1926;BME280;964;42.606;23.588;2023-02-18T09:49:16;95144.28;;;36.31;13.02
1926;BME280;964;42.606;23.588;2023-02-18T09:51:44;95128.66;;;37.94;12.52
1926;BME280;964;42.606;23.588;2023-02-18T09:54:13;95132.31;;;38.43;12.23
1926;BME280;964;42.606;23.588;2023-02-18T09:56:41;95132.78;;;39.57;11.34
1926;BME280;964;42.606;23.588;2023-02-18T09:59:13;95135.44;;;39.06;11.62
1926;BME280;964;42.606;23.588;2023-02-18T10:01:42;95135.72;;;39.27;11.89
1926;BME280;964;42.606;23.588;2023-02-18T10:04:14;95131.66;;;39.28;11.52
1926;BME280;964;42.606;23.588;2023-02-18T10:06:43;95137.97;;;38.56;12.23
1926;BME280;964;42.606;23.588;2023-02-18T10:09:16;95163.69;;;34.54;13.68
1926;BME280;964;42.606;23.588;2023-02-18T10:11:48;95157.53;;;34.33;14.25
1926;BME280;964;42.606;23.588;2023-02-18T10:14:15;95148.09;;;35.30;14.17
1926;BME280;964;42.606;23.588;2023-02-18T10:16:43;95142.09;;;35.26;13.68
1926;BME280;964;42.606;23.588;2023-02-18T10:19:21;95140.78;;;34.31;14.06
1926;BME280;964;42.606;23.588;2023-02-18T10:21:49;95141.81;;;34.39;14.29
1926;BME280;964;42.606;23.588;2023-02-18T10:24:25;95134.44;;;33.94;14.25
1926;BME280;964;42.606;23.588;2023-02-18T10:26:53;95134.91;;;34.55;14.20
1926;BME280;964;42.606;23.588;2023-02-18T10:29:20;95125.88;;;34.91;14.11
1926;BME280;964;42.606;23.588;2023-02-18T10:31:52;95132.19;;;35.68;14.20
1926;BME280;964;42.606;23.588;2023-02-18T10:34:29;95122.69;;;36.47;12.91
1926;BME280;964;42.606;23.588;2023-02-18T10:37:15;95125.19;;;35.89;13.74
1926;BME280;964;42.606;23.588;2023-02-18T10:39:57;95121.44;;;35.86;13.74
1926;BME280;964;42.606;23.588;2023-02-18T10:42:31;95123.03;;;35.28;13.50
1926;BME280;964;42.606;23.588;2023-02-18T10:45:13;95110.13;;;35.79;13.58
1926;BME280;964;42.606;23.588;2023-02-18T10:47:51;95109.03;;;35.26;14.11
1926;BME280;964;42.606;23.588;2023-02-18T10:50:27;95106.31;;;35.54;13.69
1926;BME280;964;42.606;23.588;2023-02-18T10:52:56;95091.34;;;36.16;13.42
1926;BME280;964;42.606;23.588;2023-02-18T10:55:35;95083.94;;;37.43;13.07
1926;BME280;964;42.606;23.588;2023-02-18T10:58:02;95063.59;;;39.46;11.96
1926;BME280;964;42.606;23.588;2023-02-18T11:00:34;95057.69;;;39.87;11.97
1926;BME280;964;42.606;23.588;2023-02-18T11:03:08;95067.66;;;39.45;12.06
1926;BME280;964;42.606;23.588;2023-02-18T11:05:39;95061.69;;;40.04;11.64
1926;BME280;964;42.606;23.588;2023-02-18T11:08:09;95066.88;;;39.26;11.72
1926;BME280;964;42.606;23.588;2023-02-18T11:10:39;95060.84;;;38.84;11.90
1926;BME280;964;42.606;23.588;2023-02-18T11:13:09;95061.25;;;38.94;12.15
1926;BME280;964;42.606;23.588;2023-02-18T11:15:52;95055.94;;;37.58;12.05
1926;BME280;964;42.606;23.588;2023-02-18T11:18:28;95068.38;;;37.81;12.12
1926;BME280;964;42.606;23.588;2023-02-18T11:21:00;95052.81;;;37.37;12.29
1926;BME280;964;42.606;23.588;2023-02-18T11:23:27;95046.50;;;38.07;12.16
1926;BME280;964;42.606;23.588;2023-02-18T11:25:58;95031.88;;;38.85;11.92
1926;BME280;964;42.606;23.588;2023-02-18T11:28:36;95024.06;;;38.41;12.53
1926;BME280;964;42.606;23.588;2023-02-18T11:31:06;95016.28;;;38.34;12.16
1926;BME280;964;42.606;23.588;2023-02-18T11:33:37;95023.81;;;39.75;11.18
1926;BME280;964;42.606;23.588;2023-02-18T11:36:17;95003.97;;;40.55;11.50
1926;BME280;964;42.606;23.588;2023-02-18T11:38:47;94999.38;;;40.71;11.50
1926;BME280;964;42.606;23.588;2023-02-18T11:41:16;95005.31;;;39.96;11.72
1926;BME280;964;42.606;23.588;2023-02-18T11:43:46;95004.50;;;39.51;11.72
1926;BME280;964;42.606;23.588;2023-02-18T11:46:15;94999.56;;;40.34;11.42
1926;BME280;964;42.606;23.588;2023-02-18T11:48:43;94979.31;;;41.46;11.35
1926;BME280;964;42.606;23.588;2023-02-18T11:51:17;94986.56;;;42.39;10.50
1926;BME280;964;42.606;23.588;2023-02-18T11:53:56;94968.09;;;43.00;10.54
1926;BME280;964;42.606;23.588;2023-02-18T11:56:25;94955.03;;;43.46;10.26
1926;BME280;964;42.606;23.588;2023-02-18T11:58:53;94950.13;;;43.17;10.58
1926;BME280;964;42.606;23.588;2023-02-18T12:01:27;94951.16;;;42.98;10.39
1926;BME280;964;42.606;23.588;2023-02-18T12:03:59;94944.56;;;42.09;9.98
1926;BME280;964;42.606;23.588;2023-02-18T12:06:33;94961.16;;;39.80;11.30
1926;BME280;964;42.606;23.588;2023-02-18T12:09:05;94948.28;;;41.42;11.06
1926;BME280;964;42.606;23.588;2023-02-18T12:11:35;94937.34;;;42.42;10.09
1926;BME280;964;42.606;23.588;2023-02-18T12:14:08;94929.19;;;41.87;10.51
1926;BME280;964;42.606;23.588;2023-02-18T12:16:40;94932.47;;;42.06;10.66
1926;BME280;964;42.606;23.588;2023-02-18T12:19:26;94931.09;;;41.92;10.26
1926;BME280;964;42.606;23.588;2023-02-18T12:22:07;94929.09;;;42.00;10.73
1926;BME280;964;42.606;23.588;2023-02-18T12:24:50;94934.41;;;41.29;10.58
1926;BME280;964;42.606;23.588;2023-02-18T12:27:27;94943.28;;;40.93;11.53
1926;BME280;964;42.606;23.588;2023-02-18T12:32:46;94934.06;;;40.12;11.54
1926;BME280;964;42.606;23.588;2023-02-18T12:35:32;94930.34;;;38.45;11.97
1926;BME280;964;42.606;23.588;2023-02-18T12:38:27;94929.00;;;39.07;12.14
1926;BME280;964;42.606;23.588;2023-02-18T12:41:05;94930.00;;;37.21;12.57
1926;BME280;964;42.606;23.588;2023-02-18T12:43:43;94926.91;;;37.60;12.35
1926;BME280;964;42.606;23.588;2023-02-18T12:46:26;94920.53;;;37.71;12.05
1926;BME280;964;42.606;23.588;2023-02-18T12:49:06;94910.28;;;38.76;11.99
1926;BME280;964;42.606;23.588;2023-02-18T12:51:43;94919.13;;;38.74;12.17
1926;BME280;964;42.606;23.588;2023-02-18T13:06:08;94881.81;;;42.44;10.41
1926;BME280;964;42.606;23.588;2023-02-18T13:08:46;94876.75;;;42.93;10.43
1926;BME280;964;42.606;23.588;2023-02-18T13:11:25;94876.22;;;42.87;10.03
1926;BME280;964;42.606;23.588;2023-02-18T13:14:00;94877.69;;;42.45;10.30
1926;BME280;964;42.606;23.588;2023-02-18T13:16:30;94879.09;;;43.63;10.30
1926;BME280;964;42.606;23.588;2023-02-18T13:19:00;94875.91;;;43.74;9.85
1926;BME280;964;42.606;23.588;2023-02-18T13:21:30;94873.66;;;43.05;10.57
1926;BME280;964;42.606;23.588;2023-02-18T13:23:59;94865.69;;;43.54;10.00
1926;BME280;964;42.606;23.588;2023-02-18T13:26:30;94875.50;;;42.51;10.40
1926;BME280;964;42.606;23.588;2023-02-18T13:29:09;94879.03;;;41.59;10.48
1926;BME280;964;42.606;23.588;2023-02-18T13:31:45;94894.44;;;39.85;11.57
1926;BME280;964;42.606;23.588;2023-02-18T13:34:20;94888.63;;;38.56;12.36
1926;BME280;964;42.606;23.588;2023-02-18T13:36:59;94893.44;;;38.12;12.75
1926;BME280;964;42.606;23.588;2023-02-18T13:39:30;94899.72;;;37.34;13.31
1926;BME280;964;42.606;23.588;2023-02-18T13:42:23;94894.59;;;36.79;13.95
1926;BME280;964;42.606;23.588;2023-02-18T13:45:23;94890.09;;;36.76;13.73
1926;BME280;964;42.606;23.588;2023-02-18T13:47:50;94881.56;;;36.74;14.47
1926;BME280;964;42.606;23.588;2023-02-18T13:50:40;94880.41;;;35.95;14.26
1926;BME280;964;42.606;23.588;2023-02-18T13:53:23;94878.25;;;36.34;14.58
1926;BME280;964;42.606;23.588;2023-02-18T13:55:57;94881.19;;;35.84;14.91
1926;BME280;964;42.606;23.588;2023-02-18T13:58:31;94890.00;;;35.11;15.13
1926;BME280;964;42.606;23.588;2023-02-18T14:01:03;94887.00;;;34.92;15.03
1926;BME280;964;42.606;23.588;2023-02-18T14:03:34;94883.47;;;34.75;15.69